METAR Data
IDs: Format: Raw Decoded Include TAF

Data at: 1030 UTC 18 Jan 2022

KC07 181015Z AUTO 29005KT 10SM CLR M06/M17 A3001 RMK AO2
KC07 180955Z AUTO 28005KT 10SM CLR M06/M16 A3001 RMK AO2
KC07 180935Z AUTO 29005KT 10SM CLR M06/M16 A3001 RMK AO2
KC07 180915Z AUTO 28005KT 10SM CLR M05/M17 A3001 RMK AO2
KC07 180855Z AUTO 29004KT 10SM CLR M05/M17 A3003 RMK AO2
KC07 180835Z AUTO 29004KT 10SM CLR M05/M18 A3002 RMK AO2
KC07 180815Z AUTO 28004KT 10SM CLR M05/M17 A3003 RMK AO2
KC07 180755Z AUTO 28004KT 10SM CLR M05/M17 A3003 RMK AO2
KC07 180735Z AUTO 28004KT 10SM CLR M05/M17 A3003 RMK AO2
KC07 180715Z AUTO 28004KT 10SM CLR M05/M17 A3004 RMK AO2
KC07 180655Z AUTO 27004KT 10SM CLR M05/M18 A3005 RMK AO2
KC07 180635Z AUTO 26004KT 10SM CLR M04/M18 A3005 RMK AO2
KC07 180615Z AUTO 26003KT 10SM CLR M05/M18 A3007 RMK AO2
KC07 180555Z AUTO 27003KT 10SM CLR M05/M18 A3007 RMK AO2
KC07 180535Z AUTO 26004KT 10SM CLR M05/M17 A3007 RMK AO2
KC07 180515Z AUTO 26004KT 10SM CLR M05/M16 A3007 RMK AO2
KC07 180455Z AUTO 27004KT 10SM CLR M05/M16 A3007 RMK AO2
KC07 180435Z AUTO 28005KT 10SM CLR M05/M16 A3007 RMK AO2
KC07 180415Z AUTO 28005KT 10SM CLR M05/M15 A3008 RMK AO2
KC07 180355Z AUTO 29006KT 10SM CLR M05/M15 A3009 RMK AO2
KC07 180335Z AUTO 29006KT 10SM CLR M05/M15 A3009 RMK AO2
KC07 180315Z AUTO 29006KT 10SM CLR M05/M15 A3010 RMK AO2
KC07 180255Z AUTO 29006KT 10SM CLR M05/M15 A3010 RMK AO2
KC07 180235Z AUTO 29007KT 10SM CLR M05/M14 A3010 RMK AO2
KC07 180215Z AUTO 28006KT 10SM CLR M05/M15 A3010 RMK AO2
KC07 180155Z AUTO 30006KT 10SM CLR M05/M17 A3010 RMK AO2
KC07 180135Z AUTO 30005KT 10SM CLR M04/M17 A3010 RMK AO2
KC07 180115Z AUTO 30005KT 10SM CLR M04/M18 A3010 RMK AO2
KC07 180055Z AUTO 30005KT 10SM CLR M04/M17 A3010 RMK AO2
KC07 180035Z AUTO 30006KT 10SM CLR M03/M16 A3010 RMK AO2
KC07 180015Z AUTO 29004KT 10SM CLR M03/M14 A3010 RMK AO2
KC07 172355Z AUTO 28004KT 10SM CLR M03/M13 A3010 RMK AO2
KC07 172335Z AUTO 28004KT 10SM CLR M02/M13 A3010 RMK AO2
KC07 172315Z AUTO 29005KT 10SM CLR M02/M13 A3010 RMK AO2
KC07 172255Z AUTO 29005KT 10SM CLR M01/M13 A3010 RMK AO2
KC07 172235Z AUTO 29007KT 10SM CLR M01/M13 A3012 RMK AO2
KC07 172215Z AUTO 30005KT 10SM CLR M01/M13 A3012 RMK AO2
KC07 172155Z AUTO 28006KT 10SM CLR 00/M13 A3012 RMK AO2
KC07 172135Z AUTO 28006KT 10SM CLR 00/M13 A3013 RMK AO2
KC07 172115Z AUTO 29006KT 10SM CLR 00/M14 A3013 RMK AO2
KC07 172055Z AUTO 29005KT 10SM CLR 00/M13 A3012 RMK AO2
KC07 172035Z AUTO 28006KT 250V310 10SM CLR 00/M13 A3013 RMK AO2
KC07 172015Z AUTO 30006KT 10SM CLR 00/M14 A3012 RMK AO2
KC07 171955Z AUTO 27004KT 10SM CLR 00/M13 A3016 RMK AO2
KC07 171935Z AUTO 28005KT 10SM CLR 00/M13 A3015 RMK AO2
KC07 171915Z AUTO 27004KT 10SM CLR M01/M13 A3016 RMK AO2
KC07 171855Z AUTO 29007KT 10SM CLR M01/M14 A3016 RMK AO2
KC07 171835Z AUTO 28006KT 10SM CLR M01/M14 A3018 RMK AO2
KC07 171815Z AUTO 27004KT 10SM CLR M01/M15 A3019 RMK AO2
KC07 171755Z AUTO 30006KT 10SM CLR M01/M16 A3019 RMK AO2
KC07 171735Z AUTO 29005KT 10SM CLR M02/M16 A3019 RMK AO2
KC07 171715Z AUTO 28005KT 10SM CLR M02/M16 A3019 RMK AO2
KC07 171655Z AUTO 28005KT 10SM CLR M03/M16 A3019 RMK AO2
KC07 171635Z AUTO 28005KT 10SM CLR M03/M16 A3019 RMK AO2
KC07 171615Z AUTO 29005KT 10SM CLR M04/M16 A3018 RMK AO2
KC07 171555Z AUTO 29006KT 10SM CLR M04/M17 A3018 RMK AO2
KC07 171535Z AUTO 29007KT 10SM CLR M05/M16 A3016 RMK AO2
KC07 171515Z AUTO 29007KT 10SM CLR M05/M17 A3016 RMK AO2
KC07 171455Z AUTO 29007KT 10SM CLR M05/M16 A3016 RMK AO2
KC07 171435Z AUTO 29008KT 10SM CLR M05/M16 A3016 RMK AO2
KC07 171415Z AUTO 29008KT 10SM CLR M06/M16 A3016 RMK AO2
KC07 171355Z AUTO 29008KT 10SM CLR M05/M16 A3016 RMK AO2
KC07 171335Z AUTO 30008KT 10SM CLR M05/M17 A3016 RMK AO2
KC07 171315Z AUTO 29008KT 10SM CLR M05/M16 A3016 RMK AO2
KC07 171255Z AUTO 29009G14KT 10SM CLR M06/M16 A3017 RMK AO2
KC07 171235Z AUTO 30009KT 10SM CLR M06/M16 A3016 RMK AO2
KC07 171215Z AUTO 29009KT 10SM CLR M06/M16 A3017 RMK AO2
KC07 171155Z AUTO 30009KT 10SM CLR M06/M16 A3017 RMK AO2
KC07 171135Z AUTO 29009G14KT 10SM CLR M06/M16 A3017 RMK AO2
KC07 171115Z AUTO 30009KT 10SM CLR M06/M16 A3018 RMK AO2
KC07 171055Z AUTO 30008KT 10SM CLR M06/M16 A3018 RMK AO2
KC07 171035Z AUTO 29008KT 10SM CLR M06/M16 A3019 RMK AO2
KC07 171015Z AUTO 30008KT 10SM CLR M06/M16 A3020 RMK AO2
KC07 170955Z AUTO 30008KT 10SM CLR M06/M16 A3021 RMK AO2
KC07 170935Z AUTO 29009KT 10SM CLR M06/M16 A3021 RMK AO2
KC07 170915Z AUTO 29008KT 10SM CLR M06/M15 A3021 RMK AO2
KC07 170855Z AUTO 29008KT 10SM CLR M06/M15 A3021 RMK AO2
KC07 170835Z AUTO 29009KT 10SM CLR M06/M14 A3021 RMK AO2
KC07 170815Z AUTO 29009KT 10SM CLR M06/M14 A3021 RMK AO2
KC07 170755Z AUTO 29009KT 10SM CLR M06/M15 A3021 RMK AO2
KC07 170735Z AUTO 29009G14KT 10SM CLR M06/M14 A3021 RMK AO2
KC07 170715Z AUTO 29009KT 10SM CLR M06/M14 A3021 RMK AO2
KC07 170655Z AUTO 29010G15KT 10SM CLR M06/M13 A3021 RMK AO2
KC07 170635Z AUTO 29009G14KT 10SM CLR M06/M14 A3021 RMK AO2
KC07 170615Z AUTO 29010G15KT 10SM CLR M06/M14 A3021 RMK AO2
KC07 170555Z AUTO 29009G14KT 270V330 10SM CLR M06/M14 A3022 RMK AO2
KC07 170535Z AUTO 29009KT 10SM CLR M06/M14 A3023 RMK AO2
KC07 170515Z AUTO 29009KT 10SM CLR M06/M14 A3023 RMK AO2
KC07 170455Z AUTO 28007KT 10SM CLR M07/M13 A3022 RMK AO2
KC07 170435Z AUTO 28007KT 10SM CLR M06/M14 A3023 RMK AO2
KC07 170415Z AUTO 28006KT 10SM CLR M06/M14 A3023 RMK AO2
KC07 170355Z AUTO 28006KT 10SM CLR M06/M15 A3023 RMK AO2
KC07 170335Z AUTO 28005KT 10SM CLR M06/M15 A3023 RMK AO2
KC07 170315Z AUTO 28005KT 10SM CLR M06/M16 A3023 RMK AO2
KC07 170255Z AUTO 28006KT 10SM CLR M06/M15 A3024 RMK AO2
KC07 170235Z AUTO 29007KT 10SM CLR M06/M16 A3025 RMK AO2
KC07 170215Z AUTO 29007KT 10SM CLR M06/M15 A3025 RMK AO2
KC07 170155Z AUTO 28006KT 10SM CLR M06/M15 A3025 RMK AO2
KC07 170135Z AUTO 29007KT 10SM CLR M06/M15 A3025 RMK AO2
KC07 170115Z AUTO 28006KT 10SM CLR M06/M15 A3023 RMK AO2
KC07 170055Z AUTO 29008KT 10SM CLR M06/M15 A3023 RMK AO2
KC07 170035Z AUTO 29008KT 10SM CLR M06/M15 A3023 RMK AO2
KC07 170015Z AUTO 29008KT 10SM CLR M06/M15 A3023 RMK AO2
KC07 162355Z AUTO 29007KT 10SM CLR M06/M14 A3023 RMK AO2
KC07 162335Z AUTO 28006KT 10SM CLR M05/M13 A3022 RMK AO2
KC07 162315Z AUTO 28006KT 10SM CLR M05/M13 A3024 RMK AO2
KC07 162255Z AUTO 29005KT 10SM CLR M04/M13 A3025 RMK AO2
KC07 162235Z AUTO 31005KT 10SM CLR M04/M13 A3024 RMK AO2